sensor_id;sensor_type;location;lat;lon;timestamp;pressure;altitude;pressure_sealevel;temperature;humidity
7200;BME280;3641;49.082;8.200;2023-11-21T00:00:38;99744.16;;;7.89;100.00
7200;BME280;3641;49.082;8.200;2023-11-21T00:03:05;99741.50;;;8.04;100.00
7200;BME280;3641;49.082;8.200;2023-11-21T00:05:33;99737.91;;;8.04;100.00
7200;BME280;3641;49.082;8.200;2023-11-21T00:08:00;99736.97;;;7.96;100.00
7200;BME280;3641;49.082;8.200;2023-11-21T00:10:27;99732.03;;;8.15;100.00
7200;BME280;3641;49.082;8.200;2023-11-21T00:12:53;99730.75;;;8.26;100.00
7200;BME280;3641;49.082;8.200;2023-11-21T00:15:20;99736.44;;;8.01;100.00
7200;BME280;3641;49.082;8.200;2023-11-21T00:17:46;99732.56;;;7.95;100.00
7200;BME280;3641;49.082;8.200;2023-11-21T00:20:12;99734.19;;;8.19;100.00
7200;BME280;3641;49.082;8.200;2023-11-21T00:22:40;99732.00;;;8.00;100.00
7200;BME280;3641;49.082;8.200;2023-11-21T00:25:07;99728.28;;;8.01;100.00
7200;BME280;3641;49.082;8.200;2023-11-21T00:27:34;99728.09;;;8.03;100.00
7200;BME280;3641;49.082;8.200;2023-11-21T00:30:01;99731.81;;;8.02;100.00
7200;BME280;3641;49.082;8.200;2023-11-21T00:32:29;99730.03;;;8.09;100.00
7200;BME280;3641;49.082;8.200;2023-11-21T00:34:55;99723.94;;;8.07;100.00
7200;BME280;3641;49.082;8.200;2023-11-21T00:37:22;99729.50;;;8.13;100.00
7200;BME280;3641;49.082;8.200;2023-11-21T00:39:50;99727.59;;;7.99;100.00
7200;BME280;3641;49.082;8.200;2023-11-21T00:42:16;99724.13;;;8.05;100.00
7200;BME280;3641;49.082;8.200;2023-11-21T00:44:43;99720.47;;;7.98;100.00
7200;BME280;3641;49.082;8.200;2023-11-21T00:47:09;99734.81;;;8.07;100.00
7200;BME280;3641;49.082;8.200;2023-11-21T00:49:36;99722.66;;;8.03;100.00
7200;BME280;3641;49.082;8.200;2023-11-21T00:52:04;99721.25;;;8.22;100.00
7200;BME280;3641;49.082;8.200;2023-11-21T00:54:31;99721.41;;;8.05;100.00
7200;BME280;3641;49.082;8.200;2023-11-21T00:57:00;99712.81;;;8.02;100.00
7200;BME280;3641;49.082;8.200;2023-11-21T00:59:26;99713.81;;;8.00;100.00
7200;BME280;3641;49.082;8.200;2023-11-21T01:01:52;99713.91;;;8.07;100.00
7200;BME280;3641;49.082;8.200;2023-11-21T01:04:19;99723.66;;;8.02;100.00
7200;BME280;3641;49.082;8.200;2023-11-21T01:06:45;99720.31;;;8.14;100.00
7200;BME280;3641;49.082;8.200;2023-11-21T01:09:11;99722.38;;;8.12;100.00
7200;BME280;3641;49.082;8.200;2023-11-21T01:11:38;99717.50;;;8.23;100.00
7200;BME280;3641;49.082;8.200;2023-11-21T01:14:05;99718.25;;;8.16;100.00
7200;BME280;3641;49.082;8.200;2023-11-21T01:16:34;99725.13;;;8.27;100.00
7200;BME280;3641;49.082;8.200;2023-11-21T01:19:01;99724.91;;;8.14;100.00
7200;BME280;3641;49.082;8.200;2023-11-21T01:21:27;99726.78;;;8.13;100.00
7200;BME280;3641;49.082;8.200;2023-11-21T01:23:54;99741.88;;;8.01;100.00
7200;BME280;3641;49.082;8.200;2023-11-21T01:26:21;99735.38;;;8.02;100.00
7200;BME280;3641;49.082;8.200;2023-11-21T01:28:47;99735.19;;;8.04;100.00
7200;BME280;3641;49.082;8.200;2023-11-21T01:31:15;99741.22;;;8.14;100.00
7200;BME280;3641;49.082;8.200;2023-11-21T01:33:42;99752.56;;;8.17;100.00
7200;BME280;3641;49.082;8.200;2023-11-21T01:36:09;99756.22;;;8.10;100.00
7200;BME280;3641;49.082;8.200;2023-11-21T01:38:36;99751.94;;;7.92;100.00
7200;BME280;3641;49.082;8.200;2023-11-21T01:41:02;99752.22;;;7.97;100.00
7200;BME280;3641;49.082;8.200;2023-11-21T01:43:30;99756.34;;;7.93;100.00
7200;BME280;3641;49.082;8.200;2023-11-21T01:45:57;99744.59;;;8.01;100.00
7200;BME280;3641;49.082;8.200;2023-11-21T01:48:25;99744.41;;;8.03;100.00
7200;BME280;3641;49.082;8.200;2023-11-21T01:50:52;99742.41;;;7.96;100.00
7200;BME280;3641;49.082;8.200;2023-11-21T01:53:18;99739.69;;;7.96;100.00
7200;BME280;3641;49.082;8.200;2023-11-21T01:55:46;99734.72;;;8.00;100.00
7200;BME280;3641;49.082;8.200;2023-11-21T01:58:13;99730.03;;;8.09;100.00
7200;BME280;3641;49.082;8.200;2023-11-21T02:00:39;99733.13;;;8.06;100.00
7200;BME280;3641;49.082;8.200;2023-11-21T02:03:06;99737.19;;;8.10;100.00
7200;BME280;3641;49.082;8.200;2023-11-21T02:05:34;99734.28;;;8.11;100.00
7200;BME280;3641;49.082;8.200;2023-11-21T02:08:01;99736.16;;;8.11;100.00
7200;BME280;3641;49.082;8.200;2023-11-21T02:10:28;99739.72;;;8.11;100.00
7200;BME280;3641;49.082;8.200;2023-11-21T02:12:56;99741.59;;;8.11;100.00
7200;BME280;3641;49.082;8.200;2023-11-21T02:15:23;99738.63;;;8.21;100.00
7200;BME280;3641;49.082;8.200;2023-11-21T02:17:54;99745.22;;;8.41;100.00
7200;BME280;3641;49.082;8.200;2023-11-21T02:20:21;99743.81;;;8.07;100.00
7200;BME280;3641;49.082;8.200;2023-11-21T02:22:51;99743.81;;;8.07;100.00
7200;BME280;3641;49.082;8.200;2023-11-21T02:25:23;99739.59;;;7.90;100.00
7200;BME280;3641;49.082;8.200;2023-11-21T02:27:49;99735.09;;;7.97;100.00
7200;BME280;3641;49.082;8.200;2023-11-21T02:30:16;99744.13;;;8.12;100.00
7200;BME280;3641;49.082;8.200;2023-11-21T02:32:43;99746.50;;;7.92;100.00
7200;BME280;3641;49.082;8.200;2023-11-21T02:35:11;99746.03;;;7.89;100.00
7200;BME280;3641;49.082;8.200;2023-11-21T02:37:37;99732.56;;;7.95;100.00
7200;BME280;3641;49.082;8.200;2023-11-21T02:40:08;99734.81;;;7.92;100.00
7200;BME280;3641;49.082;8.200;2023-11-21T02:42:35;99730.34;;;8.14;100.00
7200;BME280;3641;49.082;8.200;2023-11-21T02:45:01;99724.41;;;7.95;100.00
7200;BME280;3641;49.082;8.200;2023-11-21T02:47:28;99730.66;;;7.96;100.00
7200;BME280;3641;49.082;8.200;2023-11-21T02:49:55;99735.66;;;8.07;100.00
7200;BME280;3641;49.082;8.200;2023-11-21T02:52:21;99734.94;;;8.13;100.00
7200;BME280;3641;49.082;8.200;2023-11-21T02:54:48;99735.06;;;8.20;100.00
7200;BME280;3641;49.082;8.200;2023-11-21T02:57:15;99734.66;;;8.08;100.00
7200;BME280;3641;49.082;8.200;2023-11-21T02:59:42;99727.44;;;8.15;100.00
7200;BME280;3641;49.082;8.200;2023-11-21T03:02:08;99729.91;;;8.25;100.00
7200;BME280;3641;49.082;8.200;2023-11-21T03:04:35;99730.84;;;8.32;100.00
7200;BME280;3641;49.082;8.200;2023-11-21T03:07:01;99731.03;;;8.31;100.00
7200;BME280;3641;49.082;8.200;2023-11-21T03:09:27;99733.34;;;8.04;100.00
7200;BME280;3641;49.082;8.200;2023-11-21T03:11:54;99733.06;;;8.14;100.00
7200;BME280;3641;49.082;8.200;2023-11-21T03:14:22;99736.91;;;8.05;100.00
7200;BME280;3641;49.082;8.200;2023-11-21T03:16:48;99731.75;;;8.10;100.00
7200;BME280;3641;49.082;8.200;2023-11-21T03:19:15;99733.19;;;8.21;100.00
7200;BME280;3641;49.082;8.200;2023-11-21T03:21:41;99734.47;;;8.25;100.00
7200;BME280;3641;49.082;8.200;2023-11-21T03:24:08;99725.66;;;8.08;100.00
7200;BME280;3641;49.082;8.200;2023-11-21T03:26:34;99737.00;;;8.11;100.00
7200;BME280;3641;49.082;8.200;2023-11-21T03:29:02;99729.41;;;8.22;100.00
7200;BME280;3641;49.082;8.200;2023-11-21T03:31:31;99727.28;;;8.32;100.00
7200;BME280;3641;49.082;8.200;2023-11-21T03:33:57;99743.06;;;8.51;100.00
7200;BME280;3641;49.082;8.200;2023-11-21T03:36:24;99731.19;;;8.29;100.00
7200;BME280;3641;49.082;8.200;2023-11-21T03:38:51;99734.16;;;8.58;100.00
7200;BME280;3641;49.082;8.200;2023-11-21T03:41:17;99735.66;;;8.45;100.00
7200;BME280;3641;49.082;8.200;2023-11-21T03:43:43;99732.47;;;8.57;100.00
7200;BME280;3641;49.082;8.200;2023-11-21T03:46:10;99728.41;;;8.37;100.00
7200;BME280;3641;49.082;8.200;2023-11-21T03:48:38;99732.47;;;8.57;100.00
7200;BME280;3641;49.082;8.200;2023-11-21T03:51:05;99727.59;;;8.52;100.00
7200;BME280;3641;49.082;8.200;2023-11-21T03:53:32;99729.63;;;8.35;100.00
7200;BME280;3641;49.082;8.200;2023-11-21T03:55:58;99736.06;;;8.57;100.00
7200;BME280;3641;49.082;8.200;2023-11-21T03:58:26;99745.06;;;8.19;100.00
7200;BME280;3641;49.082;8.200;2023-11-21T04:00:53;99742.31;;;8.43;100.00
7200;BME280;3641;49.082;8.200;2023-11-21T04:03:19;99739.44;;;8.44;100.00
7200;BME280;3641;49.082;8.200;2023-11-21T04:05:47;99748.25;;;8.23;100.00
7200;BME280;3641;49.082;8.200;2023-11-21T04:08:13;99741.03;;;8.15;100.00
7200;BME280;3641;49.082;8.200;2023-11-21T04:10:40;99745.28;;;8.33;100.00
7200;BME280;3641;49.082;8.200;2023-11-21T04:13:07;99751.50;;;8.04;100.00
7200;BME280;3641;49.082;8.200;2023-11-21T04:15:33;99753.13;;;8.28;100.00
7200;BME280;3641;49.082;8.200;2023-11-21T04:18:00;99759.13;;;8.46;100.00
7200;BME280;3641;49.082;8.200;2023-11-21T04:20:26;99759.00;;;8.40;100.00
7200;BME280;3641;49.082;8.200;2023-11-21T04:22:54;99765.69;;;8.14;100.00
7200;BME280;3641;49.082;8.200;2023-11-21T04:25:21;99762.66;;;8.09;100.00
7200;BME280;3641;49.082;8.200;2023-11-21T04:27:48;99766.09;;;8.26;100.00
7200;BME280;3641;49.082;8.200;2023-11-21T04:30:15;99773.66;;;8.15;100.00
7200;BME280;3641;49.082;8.200;2023-11-21T04:32:42;99767.16;;;8.02;100.00
7200;BME280;3641;49.082;8.200;2023-11-21T04:35:08;99772.81;;;8.15;100.00
7200;BME280;3641;49.082;8.200;2023-11-21T04:37:35;99771.97;;;8.14;100.00
7200;BME280;3641;49.082;8.200;2023-11-21T04:40:04;99767.16;;;8.02;100.00
7200;BME280;3641;49.082;8.200;2023-11-21T04:42:33;99773.09;;;7.82;100.00
7200;BME280;3641;49.082;8.200;2023-11-21T04:44:59;99773.75;;;7.84;100.00
7200;BME280;3641;49.082;8.200;2023-11-21T04:47:26;99771.41;;;8.19;100.00
7200;BME280;3641;49.082;8.200;2023-11-21T04:49:53;99779.34;;;8.06;100.00
7200;BME280;3641;49.082;8.200;2023-11-21T04:52:19;99781.28;;;8.20;100.00
7200;BME280;3641;49.082;8.200;2023-11-21T04:54:46;99785.56;;;7.91;100.00
7200;BME280;3641;49.082;8.200;2023-11-21T04:57:14;99787.03;;;8.02;100.00
7200;BME280;3641;49.082;8.200;2023-11-21T04:59:44;99795.97;;;7.88;100.00
7200;BME280;3641;49.082;8.200;2023-11-21T05:02:10;99789.84;;;8.09;100.00
7200;BME280;3641;49.082;8.200;2023-11-21T05:04:37;99792.81;;;7.99;100.00
7200;BME280;3641;49.082;8.200;2023-11-21T05:07:04;99792.34;;;7.95;100.00
7200;BME280;3641;49.082;8.200;2023-11-21T05:09:30;99791.22;;;7.90;100.00
7200;BME280;3641;49.082;8.200;2023-11-21T05:11:57;99788.16;;;7.85;100.00
7200;BME280;3641;49.082;8.200;2023-11-21T05:14:26;99791.81;;;8.00;100.00
7200;BME280;3641;49.082;8.200;2023-11-21T05:16:52;99792.22;;;7.89;100.00
7200;BME280;3641;49.082;8.200;2023-11-21T05:19:19;99793.94;;;7.90;100.00
7200;BME280;3641;49.082;8.200;2023-11-21T05:21:46;99798.19;;;8.07;100.00
7200;BME280;3641;49.082;8.200;2023-11-21T05:24:12;99800.44;;;8.04;100.00
7200;BME280;3641;49.082;8.200;2023-11-21T05:26:39;99796.91;;;8.18;100.00
7200;BME280;3641;49.082;8.200;2023-11-21T05:29:05;99806.34;;;8.07;100.00
7200;BME280;3641;49.082;8.200;2023-11-21T05:31:33;99802.59;;;8.31;100.00
7200;BME280;3641;49.082;8.200;2023-11-21T05:33:59;99813.28;;;8.33;100.00
7200;BME280;3641;49.082;8.200;2023-11-21T05:36:26;99815.88;;;8.26;100.00
7200;BME280;3641;49.082;8.200;2023-11-21T05:38:53;99825.25;;;8.00;100.00
7200;BME280;3641;49.082;8.200;2023-11-21T05:41:19;99817.03;;;7.86;100.00
7200;BME280;3641;49.082;8.200;2023-11-21T05:43:46;99821.69;;;7.77;100.00
7200;BME280;3641;49.082;8.200;2023-11-21T05:46:13;99818.78;;;7.78;100.00
7200;BME280;3641;49.082;8.200;2023-11-21T05:48:41;99828.28;;;7.82;100.00
7200;BME280;3641;49.082;8.200;2023-11-21T05:51:07;99839.38;;;8.19;100.00
7200;BME280;3641;49.082;8.200;2023-11-21T05:53:34;99834.09;;;8.41;100.00
7200;BME280;3641;49.082;8.200;2023-11-21T05:56:00;99837.81;;;8.48;100.00
7200;BME280;3641;49.082;8.200;2023-11-21T05:58:29;99830.25;;;8.35;100.00
7200;BME280;3641;49.082;8.200;2023-11-21T06:00:55;99843.66;;;8.13;100.00
7200;BME280;3641;49.082;8.200;2023-11-21T06:03:22;99840.66;;;8.31;100.00
7200;BME280;3641;49.082;8.200;2023-11-21T06:05:49;99851.97;;;8.20;100.00
7200;BME280;3641;49.082;8.200;2023-11-21T06:08:16;99854.06;;;8.10;100.00
7200;BME280;3641;49.082;8.200;2023-11-21T06:10:42;99857.00;;;8.23;100.00
7200;BME280;3641;49.082;8.200;2023-11-21T06:13:09;99854.47;;;8.22;100.00
7200;BME280;3641;49.082;8.200;2023-11-21T06:15:36;99852.59;;;7.99;100.00
7200;BME280;3641;49.082;8.200;2023-11-21T06:18:03;99851.72;;;8.07;100.00
7200;BME280;3641;49.082;8.200;2023-11-21T06:20:30;99861.28;;;8.41;100.00
7200;BME280;3641;49.082;8.200;2023-11-21T06:22:58;99856.59;;;8.11;100.00
7200;BME280;3641;49.082;8.200;2023-11-21T06:25:28;99858.22;;;8.44;100.00
7200;BME280;3641;49.082;8.200;2023-11-21T06:27:58;99854.59;;;8.51;100.00
7200;BME280;3641;49.082;8.200;2023-11-21T06:30:24;99865.66;;;8.50;100.00
7200;BME280;3641;49.082;8.200;2023-11-21T06:32:51;99868.63;;;8.63;100.00
7200;BME280;3641;49.082;8.200;2023-11-21T06:35:18;99869.38;;;8.72;100.00
7200;BME280;3641;49.082;8.200;2023-11-21T06:37:44;99876.00;;;8.69;100.00
7200;BME280;3641;49.082;8.200;2023-11-21T06:40:14;99877.16;;;8.60;100.00
7200;BME280;3641;49.082;8.200;2023-11-21T06:42:41;99887.47;;;8.65;100.00
7200;BME280;3641;49.082;8.200;2023-11-21T06:45:09;99883.16;;;8.70;100.00
7200;BME280;3641;49.082;8.200;2023-11-21T06:47:36;99894.38;;;8.52;100.00
7200;BME280;3641;49.082;8.200;2023-11-21T06:50:03;99887.13;;;8.45;100.00
7200;BME280;3641;49.082;8.200;2023-11-21T06:52:30;99892.94;;;8.65;100.00
7200;BME280;3641;49.082;8.200;2023-11-21T06:54:56;99895.41;;;8.51;100.00
7200;BME280;3641;49.082;8.200;2023-11-21T06:57:24;99903.91;;;8.71;100.00
7200;BME280;3641;49.082;8.200;2023-11-21T06:59:51;99903.47;;;8.83;100.00
7200;BME280;3641;49.082;8.200;2023-11-21T07:02:17;99906.34;;;8.43;100.00
7200;BME280;3641;49.082;8.200;2023-11-21T07:04:44;99913.91;;;8.56;100.00
7200;BME280;3641;49.082;8.200;2023-11-21T07:07:11;99915.16;;;8.68;100.00
7200;BME280;3641;49.082;8.200;2023-11-21T07:09:38;99918.16;;;8.59;100.00
7200;BME280;3641;49.082;8.200;2023-11-21T07:12:05;99923.06;;;8.32;100.00
7200;BME280;3641;49.082;8.200;2023-11-21T07:14:34;99927.56;;;8.48;100.00
7200;BME280;3641;49.082;8.200;2023-11-21T07:17:00;99929.25;;;8.72;100.00
7200;BME280;3641;49.082;8.200;2023-11-21T07:19:27;99935.16;;;8.76;100.00
7200;BME280;3641;49.082;8.200;2023-11-21T07:21:54;99939.72;;;8.60;100.00
7200;BME280;3641;49.082;8.200;2023-11-21T07:24:21;99953.00;;;8.78;100.00
7200;BME280;3641;49.082;8.200;2023-11-21T07:26:47;99947.63;;;8.70;100.00
7200;BME280;3641;49.082;8.200;2023-11-21T07:29:14;99958.34;;;8.71;100.00
7200;BME280;3641;49.082;8.200;2023-11-21T07:31:42;99960.81;;;8.81;100.00
7200;BME280;3641;49.082;8.200;2023-11-21T07:34:08;99969.53;;;8.91;100.00
7200;BME280;3641;49.082;8.200;2023-11-21T07:36:35;99968.78;;;8.83;100.00
7200;BME280;3641;49.082;8.200;2023-11-21T07:39:02;99970.03;;;8.95;100.00
7200;BME280;3641;49.082;8.200;2023-11-21T07:41:28;99968.53;;;8.93;100.00
7200;BME280;3641;49.082;8.200;2023-11-21T07:43:55;99973.13;;;8.92;100.00
7200;BME280;3641;49.082;8.200;2023-11-21T07:46:22;99977.06;;;8.89;100.00
7200;BME280;3641;49.082;8.200;2023-11-21T07:48:50;99974.34;;;8.89;100.00
7200;BME280;3641;49.082;8.200;2023-11-21T07:51:18;99973.41;;;8.97;100.00
7200;BME280;3641;49.082;8.200;2023-11-21T07:53:45;99978.69;;;8.99;100.00
7200;BME280;3641;49.082;8.200;2023-11-21T07:56:11;99975.59;;;9.02;100.00
7200;BME280;3641;49.082;8.200;2023-11-21T07:58:38;99985.50;;;8.95;100.00
7200;BME280;3641;49.082;8.200;2023-11-21T08:01:05;99986.13;;;9.05;100.00
7200;BME280;3641;49.082;8.200;2023-11-21T08:03:31;99985.94;;;9.06;100.00
7200;BME280;3641;49.082;8.200;2023-11-21T08:05:59;99982.88;;;9.01;100.00
7200;BME280;3641;49.082;8.200;2023-11-21T08:08:28;99986.19;;;8.97;100.00
7200;BME280;3641;49.082;8.200;2023-11-21T08:10:55;99981.13;;;8.94;100.00
7200;BME280;3641;49.082;8.200;2023-11-21T08:13:22;99994.03;;;8.91;100.00
7200;BME280;3641;49.082;8.200;2023-11-21T08:15:49;99998.84;;;9.04;100.00
7200;BME280;3641;49.082;8.200;2023-11-21T08:18:15;99999.16;;;8.71;100.00
7200;BME280;3641;49.082;8.200;2023-11-21T08:20:43;100005.28;;;8.88;100.00
7200;BME280;3641;49.082;8.200;2023-11-21T08:23:11;100004.00;;;8.99;100.00
7200;BME280;3641;49.082;8.200;2023-11-21T08:25:37;100013.91;;;9.15;100.00
7200;BME280;3641;49.082;8.200;2023-11-21T08:28:04;100018.78;;;9.05;100.00
7200;BME280;3641;49.082;8.200;2023-11-21T08:30:30;100017.16;;;8.96;100.00
7200;BME280;3641;49.082;8.200;2023-11-21T08:32:57;100021.50;;;8.82;100.00
7200;BME280;3641;49.082;8.200;2023-11-21T08:35:23;100027.22;;;8.95;100.00
7200;BME280;3641;49.082;8.200;2023-11-21T08:37:51;100030.78;;;8.96;100.00
7200;BME280;3641;49.082;8.200;2023-11-21T08:40:19;100032.09;;;8.77;100.00
7200;BME280;3641;49.082;8.200;2023-11-21T08:42:46;100033.97;;;8.99;100.00
7200;BME280;3641;49.082;8.200;2023-11-21T08:45:13;100037.16;;;9.03;100.00
7200;BME280;3641;49.082;8.200;2023-11-21T08:47:39;100036.03;;;8.74;100.00
7200;BME280;3641;49.082;8.200;2023-11-21T08:50:07;100039.84;;;8.88;100.00
7200;BME280;3641;49.082;8.200;2023-11-21T08:52:33;100048.84;;;8.88;100.00
7200;BME280;3641;49.082;8.200;2023-11-21T08:55:02;100050.13;;;9.01;100.00
7200;BME280;3641;49.082;8.200;2023-11-21T08:57:34;100044.84;;;8.99;100.00
7200;BME280;3641;49.082;8.200;2023-11-21T09:00:01;100041.09;;;8.77;100.00
7200;BME280;3641;49.082;8.200;2023-11-21T09:02:27;100054.06;;;8.75;100.00
7200;BME280;3641;49.082;8.200;2023-11-21T09:04:54;100046.75;;;8.99;100.00
7200;BME280;3641;49.082;8.200;2023-11-21T09:07:20;100042.19;;;8.91;100.00
7200;BME280;3641;49.082;8.200;2023-11-21T09:09:47;100048.13;;;8.95;100.00
7200;BME280;3641;49.082;8.200;2023-11-21T09:12:14;100054.81;;;8.84;100.00
7200;BME280;3641;49.082;8.200;2023-11-21T09:14:42;100052.44;;;8.89;100.00
7200;BME280;3641;49.082;8.200;2023-11-21T09:17:09;100051.63;;;9.03;100.00
7200;BME280;3641;49.082;8.200;2023-11-21T09:19:37;100055.09;;;8.97;100.00
7200;BME280;3641;49.082;8.200;2023-11-21T09:22:04;100059.47;;;8.98;100.00
7200;BME280;3641;49.082;8.200;2023-11-21T09:24:31;100066.22;;;8.87;100.00
7200;BME280;3641;49.082;8.200;2023-11-21T09:26:57;100066.09;;;9.04;100.00
7200;BME280;3641;49.082;8.200;2023-11-21T09:29:25;100068.69;;;8.97;100.00
7200;BME280;3641;49.082;8.200;2023-11-21T09:31:53;100074.63;;;9.01;100.00
7200;BME280;3641;49.082;8.200;2023-11-21T09:34:20;100075.88;;;8.90;100.00
7200;BME280;3641;49.082;8.200;2023-11-21T09:36:46;100078.00;;;9.03;100.00
7200;BME280;3641;49.082;8.200;2023-11-21T09:39:13;100087.22;;;9.02;100.00
7200;BME280;3641;49.082;8.200;2023-11-21T09:41:43;100093.38;;;8.96;100.00
7200;BME280;3641;49.082;8.200;2023-11-21T09:44:13;100088.34;;;8.84;100.00
7200;BME280;3641;49.082;8.200;2023-11-21T09:46:41;100087.63;;;8.90;100.00
7200;BME280;3641;49.082;8.200;2023-11-21T09:49:10;100095.63;;;8.92;100.00
7200;BME280;3641;49.082;8.200;2023-11-21T09:51:39;100094.84;;;9.06;100.00
7200;BME280;3641;49.082;8.200;2023-11-21T09:54:07;100106.28;;;9.02;100.00
7200;BME280;3641;49.082;8.200;2023-11-21T09:56:35;100098.34;;;9.15;100.00
7200;BME280;3641;49.082;8.200;2023-11-21T09:59:01;100102.50;;;9.03;100.00
7200;BME280;3641;49.082;8.200;2023-11-21T10:01:32;100106.56;;;9.07;100.00
7200;BME280;3641;49.082;8.200;2023-11-21T10:03:59;100104.50;;;9.09;100.00
7200;BME280;3641;49.082;8.200;2023-11-21T10:06:30;100111.41;;;9.20;100.00
7200;BME280;3641;49.082;8.200;2023-11-21T10:08:59;100099.31;;;9.22;100.00
7200;BME280;3641;49.082;8.200;2023-11-21T10:11:27;100101.97;;;9.31;100.00
7200;BME280;3641;49.082;8.200;2023-11-21T10:13:55;100107.13;;;9.25;100.00
7200;BME280;3641;49.082;8.200;2023-11-21T10:16:25;100106.53;;;9.30;100.00
7200;BME280;3641;49.082;8.200;2023-11-21T10:18:52;100107.22;;;9.32;100.00
7200;BME280;3641;49.082;8.200;2023-11-21T10:21:20;100100.50;;;9.43;100.00
7200;BME280;3641;49.082;8.200;2023-11-21T10:23:48;100107.69;;;9.36;100.00
7200;BME280;3641;49.082;8.200;2023-11-21T10:26:16;100111.69;;;9.25;100.00
7200;BME280;3641;49.082;8.200;2023-11-21T10:28:55;100112.06;;;9.22;100.00
7200;BME280;3641;49.082;8.200;2023-11-21T10:31:22;100113.22;;;9.27;100.00
7200;BME280;3641;49.082;8.200;2023-11-21T10:33:49;100115.69;;;9.37;100.00
7200;BME280;3641;49.082;8.200;2023-11-21T10:36:24;100120.38;;;9.29;100.00
7200;BME280;3641;49.082;8.200;2023-11-21T10:38:52;100124.47;;;9.24;100.00
7200;BME280;3641;49.082;8.200;2023-11-21T10:41:19;100129.19;;;9.07;100.00
7200;BME280;3641;49.082;8.200;2023-11-21T10:43:46;100129.69;;;9.11;100.00
7200;BME280;3641;49.082;8.200;2023-11-21T10:46:13;100134.91;;;9.21;100.00
7200;BME280;3641;49.082;8.200;2023-11-21T10:48:41;100132.91;;;9.15;100.00
7200;BME280;3641;49.082;8.200;2023-11-21T10:51:08;100142.72;;;9.24;100.00
7200;BME280;3641;49.082;8.200;2023-11-21T10:53:38;100138.88;;;9.33;100.00
7200;BME280;3641;49.082;8.200;2023-11-21T10:56:08;100130.66;;;9.18;100.00
7200;BME280;3641;49.082;8.200;2023-11-21T10:58:37;100129.50;;;9.36;100.00
7200;BME280;3641;49.082;8.200;2023-11-21T11:01:06;100137.56;;;9.29;100.00
7200;BME280;3641;49.082;8.200;2023-11-21T11:03:36;100136.91;;;9.27;100.00
7200;BME280;3641;49.082;8.200;2023-11-21T11:06:03;100139.03;;;9.32;100.00
7200;BME280;3641;49.082;8.200;2023-11-21T11:08:34;100141.47;;;9.26;100.00
7200;BME280;3641;49.082;8.200;2023-11-21T11:11:01;100143.91;;;9.21;100.00
7200;BME280;3641;49.082;8.200;2023-11-21T11:13:29;100154.84;;;9.36;100.00
7200;BME280;3641;49.082;8.200;2023-11-21T11:15:58;100154.44;;;9.24;100.00
7200;BME280;3641;49.082;8.200;2023-11-21T11:18:26;100153.25;;;9.27;100.00
7200;BME280;3641;49.082;8.200;2023-11-21T11:20:54;100149.53;;;9.20;100.00
7200;BME280;3641;49.082;8.200;2023-11-21T11:23:35;100152.91;;;9.22;100.00
7200;BME280;3641;49.082;8.200;2023-11-21T11:26:12;100148.00;;;9.17;100.00
7200;BME280;3641;49.082;8.200;2023-11-21T11:28:47;100144.69;;;9.30;100.00
7200;BME280;3641;49.082;8.200;2023-11-21T11:31:27;100147.97;;;9.25;100.00
7200;BME280;3641;49.082;8.200;2023-11-21T11:34:00;100153.16;;;9.35;100.00
7200;BME280;3641;49.082;8.200;2023-11-21T11:36:35;100156.63;;;9.29;100.00
7200;BME280;3641;49.082;8.200;2023-11-21T11:39:02;100149.47;;;9.28;100.00
7200;BME280;3641;49.082;8.200;2023-11-21T11:41:31;100153.00;;;9.37;100.00
7200;BME280;3641;49.082;8.200;2023-11-21T11:44:01;100147.34;;;9.38;100.00
7200;BME280;3641;49.082;8.200;2023-11-21T11:46:41;100158.25;;;9.15;100.00
7200;BME280;3641;49.082;8.200;2023-11-21T11:49:07;100152.25;;;9.20;100.00
7200;BME280;3641;49.082;8.200;2023-11-21T11:51:34;100145.25;;;9.25;100.00
7200;BME280;3641;49.082;8.200;2023-11-21T11:54:01;100156.31;;;9.24;100.00
7200;BME280;3641;49.082;8.200;2023-11-21T11:56:29;100159.47;;;9.13;100.00
7200;BME280;3641;49.082;8.200;2023-11-21T11:59:01;100158.31;;;9.07;100.00
7200;BME280;3641;49.082;8.200;2023-11-21T12:01:29;100154.50;;;9.16;100.00
7200;BME280;3641;49.082;8.200;2023-11-21T12:04:24;100153.69;;;9.07;100.00
7200;BME280;3641;49.082;8.200;2023-11-21T12:06:57;100157.59;;;9.13;100.00
7200;BME280;3641;49.082;8.200;2023-11-21T12:09:28;100161.63;;;9.17;100.00
7200;BME280;3641;49.082;8.200;2023-11-21T12:11:55;100164.31;;;9.25;100.00
7200;BME280;3641;49.082;8.200;2023-11-21T12:14:23;100168.09;;;9.39;100.00
7200;BME280;3641;49.082;8.200;2023-11-21T12:16:50;100165.16;;;9.26;100.00
7200;BME280;3641;49.082;8.200;2023-11-21T12:19:17;100166.84;;;9.27;100.00
7200;BME280;3641;49.082;8.200;2023-11-21T12:21:45;100161.53;;;9.34;100.00
7200;BME280;3641;49.082;8.200;2023-11-21T12:24:13;100165.81;;;9.28;100.00
7200;BME280;3641;49.082;8.200;2023-11-21T12:26:42;100165.81;;;9.28;100.00
7200;BME280;3641;49.082;8.200;2023-11-21T12:29:09;100171.25;;;9.28;100.00
7200;BME280;3641;49.082;8.200;2023-11-21T12:31:37;100179.31;;;9.21;100.00
7200;BME280;3641;49.082;8.200;2023-11-21T12:34:03;100169.31;;;9.14;100.00
7200;BME280;3641;49.082;8.200;2023-11-21T12:36:32;100175.56;;;9.22;100.00
7200;BME280;3641;49.082;8.200;2023-11-21T12:39:00;100182.09;;;9.13;100.00
7200;BME280;3641;49.082;8.200;2023-11-21T12:41:27;100177.31;;;9.15;100.00
7200;BME280;3641;49.082;8.200;2023-11-21T12:43:55;100176.75;;;9.20;100.00
7200;BME280;3641;49.082;8.200;2023-11-21T12:46:21;100183.75;;;9.22;100.00
7200;BME280;3641;49.082;8.200;2023-11-21T12:48:49;100185.50;;;9.38;100.00
7200;BME280;3641;49.082;8.200;2023-11-21T12:51:16;100192.22;;;9.27;100.00
7200;BME280;3641;49.082;8.200;2023-11-21T12:53:44;100186.28;;;9.24;100.00
7200;BME280;3641;49.082;8.200;2023-11-21T12:56:10;100187.31;;;9.23;100.00
7200;BME280;3641;49.082;8.200;2023-11-21T12:58:37;100190.50;;;9.26;100.00
7200;BME280;3641;49.082;8.200;2023-11-21T13:01:05;100192.56;;;9.24;100.00
7200;BME280;3641;49.082;8.200;2023-11-21T13:03:37;100194.31;;;9.40;100.00
7200;BME280;3641;49.082;8.200;2023-11-21T13:06:06;100196.75;;;9.35;100.00
7200;BME280;3641;49.082;8.200;2023-11-21T13:08:33;100198.00;;;9.48;100.00
7200;BME280;3641;49.082;8.200;2023-11-21T13:11:00;100189.47;;;9.51;100.00
7200;BME280;3641;49.082;8.200;2023-11-21T13:13:29;100194.81;;;9.44;100.00
7200;BME280;3641;49.082;8.200;2023-11-21T13:15:57;100201.53;;;9.56;100.00
7200;BME280;3641;49.082;8.200;2023-11-21T13:18:26;100200.56;;;9.49;100.00